createdAt,value
2022-10-26T00:01:22.648Z,12.51
2022-10-26T00:03:50.797Z,12.51
2022-10-26T00:06:21.190Z,12.42
2022-10-26T00:08:49.773Z,12.61
2022-10-26T00:11:19.437Z,12.63
2022-10-26T00:13:48.048Z,12.67
2022-10-26T00:16:20.279Z,12.64
2022-10-26T00:18:49.124Z,12.55
2022-10-26T00:21:17.469Z,12.34
2022-10-26T00:23:45.318Z,12.21
2022-10-26T00:26:13.351Z,12.20
2022-10-26T00:28:41.645Z,12.09
2022-10-26T00:31:14.327Z,12.06
2022-10-26T00:33:42.147Z,12.04
2022-10-26T00:36:14.554Z,11.95
2022-10-26T00:38:46.026Z,11.94
2022-10-26T00:41:16.545Z,11.91
2022-10-26T00:43:44.753Z,11.84
2022-10-26T00:46:18.372Z,11.78
2022-10-26T00:48:51.218Z,11.73
2022-10-26T00:51:25.802Z,11.78
2022-10-26T00:53:55.343Z,11.77
2022-10-26T00:56:24.026Z,11.82
2022-10-26T00:58:52.559Z,11.87
2022-10-26T01:01:20.614Z,11.80
2022-10-26T01:03:49.657Z,11.67
2022-10-26T01:06:19.578Z,11.65
2022-10-26T01:08:48.629Z,11.65
2022-10-26T01:11:16.614Z,11.55
2022-10-26T01:13:47.360Z,11.68
2022-10-26T01:16:53.878Z,11.77
2022-10-26T01:19:42.840Z,11.75
2022-10-26T01:22:17.395Z,11.72
2022-10-26T01:25:16.924Z,11.69
2022-10-26T01:27:48.699Z,11.75
2022-10-26T01:30:25.690Z,11.69
2022-10-26T01:33:06.055Z,11.61
2022-10-26T01:35:52.749Z,11.66
2022-10-26T01:38:38.515Z,11.69
2022-10-26T01:41:20.921Z,11.73
2022-10-26T01:44:13.979Z,11.74
2022-10-26T01:46:46.091Z,11.85
2022-10-26T01:49:17.157Z,11.90
2022-10-26T01:51:48.813Z,11.99
2022-10-26T01:54:17.327Z,12.06
2022-10-26T01:56:50.498Z,12.10
2022-10-26T01:59:43.201Z,12.20
2022-10-26T02:02:32.549Z,11.88
2022-10-26T02:05:10.388Z,12.14
2022-10-26T02:07:47.379Z,12.16
2022-10-26T02:10:30.910Z,12.15
2022-10-26T02:13:17.599Z,12.02
2022-10-26T02:15:58.479Z,11.83
2022-10-26T02:18:38.240Z,11.70
2022-10-26T02:21:15.156Z,11.83
2022-10-26T02:23:46.106Z,11.97
2022-10-26T02:26:16.496Z,11.98
2022-10-26T02:28:49.662Z,12.03
2022-10-26T02:31:19.814Z,12.04
2022-10-26T02:33:50.502Z,11.93
2022-10-26T02:36:25.689Z,11.92
2022-10-26T02:38:55.803Z,11.71
2022-10-26T02:41:25.969Z,11.56
2022-10-26T02:44:06.623Z,11.68
2022-10-26T02:46:34.749Z,11.80
2022-10-26T02:49:02.730Z,12.00
2022-10-26T02:51:41.237Z,12.08
2022-10-26T02:54:18.580Z,12.05
2022-10-26T02:56:56.480Z,11.77
2022-10-26T02:59:29.215Z,11.90
2022-10-26T03:01:57.952Z,11.63
2022-10-26T03:04:33.713Z,11.59
2022-10-26T03:07:02.358Z,11.86
2022-10-26T03:09:30.107Z,11.97
2022-10-26T03:11:57.814Z,11.62
2022-10-26T03:14:25.528Z,11.87
2022-10-26T03:16:53.272Z,11.83
2022-10-26T03:19:21.083Z,11.55
2022-10-26T03:21:49.024Z,11.37
2022-10-26T03:24:16.747Z,11.44
2022-10-26T03:26:44.561Z,11.47
2022-10-26T03:29:12.337Z,10.91
2022-10-26T03:31:40.319Z,11.30
2022-10-26T03:34:08.492Z,11.43
2022-10-26T03:36:36.490Z,11.45
2022-10-26T03:39:04.326Z,11.39
2022-10-26T03:41:32.160Z,11.29
2022-10-26T03:43:59.889Z,10.80
2022-10-26T03:46:27.924Z,10.83
2022-10-26T03:48:55.956Z,11.01
2022-10-26T03:51:23.804Z,10.92
2022-10-26T03:53:51.494Z,11.03
2022-10-26T03:56:19.231Z,11.22
2022-10-26T03:58:47.049Z,11.33
2022-10-26T04:01:15.268Z,11.26
2022-10-26T04:03:43.103Z,11.30
2022-10-26T04:06:10.895Z,11.43
2022-10-26T04:08:38.891Z,11.44
2022-10-26T04:11:06.808Z,11.37
2022-10-26T04:13:35.022Z,11.24
2022-10-26T04:16:02.937Z,11.26
2022-10-26T04:18:30.706Z,11.29
2022-10-26T04:21:02.244Z,11.36
2022-10-26T04:23:30.435Z,11.33
2022-10-26T04:25:58.172Z,11.40
2022-10-26T04:28:26.097Z,11.23
2022-10-26T04:30:53.950Z,11.28
2022-10-26T04:33:21.987Z,11.41
2022-10-26T04:35:49.935Z,11.57
2022-10-26T04:38:17.619Z,11.63
2022-10-26T04:40:50.974Z,11.69
2022-10-26T04:43:19.877Z,11.75
2022-10-26T04:45:48.980Z,11.82
2022-10-26T04:48:17.513Z,11.91
2022-10-26T04:50:46.070Z,12.03
2022-10-26T04:53:14.194Z,12.02
2022-10-26T04:55:43.076Z,11.82
2022-10-26T04:58:10.973Z,11.94
2022-10-26T05:00:38.874Z,12.00
2022-10-26T05:03:07.715Z,11.98
2022-10-26T05:05:37.104Z,11.99
2022-10-26T05:08:05.905Z,11.95
2022-10-26T05:10:34.110Z,11.91
2022-10-26T05:13:03.100Z,11.89
2022-10-26T05:15:31.159Z,12.00
2022-10-26T05:18:05.524Z,12.04
2022-10-26T05:20:35.371Z,12.08
2022-10-26T05:23:06.081Z,12.01
2022-10-26T05:25:37.782Z,11.97
2022-10-26T05:28:09.539Z,11.86
2022-10-26T05:30:37.436Z,11.79
2022-10-26T05:33:05.936Z,11.43
2022-10-26T05:35:33.716Z,11.28
2022-10-26T05:38:10.568Z,11.63
2022-10-26T05:40:38.482Z,11.77
2022-10-26T05:43:06.448Z,11.60
2022-10-26T05:45:34.686Z,11.72
2022-10-26T05:48:02.985Z,11.77
2022-10-26T05:50:31.706Z,12.00
2022-10-26T05:53:03.382Z,12.13
2022-10-26T05:55:31.874Z,12.30
2022-10-26T05:58:00.065Z,12.25
2022-10-26T06:00:29.427Z,12.21
2022-10-26T06:03:09.211Z,11.87
2022-10-26T06:05:58.201Z,11.88
2022-10-26T06:08:28.688Z,11.82
2022-10-26T06:10:59.487Z,11.74
2022-10-26T06:13:27.764Z,11.81
2022-10-26T06:16:07.871Z,11.85
2022-10-26T06:18:52.490Z,11.82
2022-10-26T06:21:54.192Z,12.14
2022-10-26T06:24:36.663Z,12.27
2022-10-26T06:27:26.045Z,12.40
2022-10-26T06:30:03.427Z,12.58
2022-10-26T06:32:32.152Z,12.76
2022-10-26T06:35:27.509Z,12.90
2022-10-26T06:38:00.342Z,13.03
2022-10-26T06:40:33.110Z,12.97
2022-10-26T06:43:01.624Z,12.95
2022-10-26T06:45:30.565Z,12.94
2022-10-26T06:48:14.096Z,12.85
2022-10-26T06:50:52.956Z,12.72
2022-10-26T06:53:33.797Z,12.76
2022-10-26T06:56:02.339Z,12.93
2022-10-26T06:58:36.449Z,13.19
2022-10-26T07:01:04.836Z,13.31
2022-10-26T07:03:32.958Z,13.30
2022-10-26T07:06:00.966Z,13.25
2022-10-26T07:08:32.104Z,13.12
2022-10-26T07:11:00.037Z,13.35
2022-10-26T07:13:28.235Z,13.26
2022-10-26T07:15:56.220Z,13.44
2022-10-26T07:18:24.115Z,13.61
2022-10-26T07:20:52.135Z,13.81
2022-10-26T07:23:20.145Z,13.87
2022-10-26T07:25:48.120Z,13.88
2022-10-26T07:28:16.029Z,14.08
2022-10-26T07:30:43.901Z,14.27
2022-10-26T07:33:14.019Z,14.34
2022-10-26T07:35:42.060Z,14.50
2022-10-26T07:38:10.755Z,14.66
2022-10-26T07:40:38.602Z,14.83
2022-10-26T07:43:06.797Z,14.90
2022-10-26T07:45:35.342Z,14.82
2022-10-26T07:48:03.463Z,14.86
2022-10-26T07:50:31.434Z,15.02
2022-10-26T07:52:59.851Z,14.96
2022-10-26T07:55:28.302Z,15.00
2022-10-26T07:57:56.751Z,15.20
2022-10-26T08:00:25.795Z,15.32
2022-10-26T08:02:54.218Z,15.33
2022-10-26T08:05:22.499Z,15.10
2022-10-26T08:07:50.585Z,15.19
2022-10-26T08:10:19.487Z,15.52
2022-10-26T08:12:47.523Z,15.17
2022-10-26T08:15:15.582Z,15.03
2022-10-26T08:17:44.262Z,15.62
2022-10-26T08:20:12.557Z,15.77
2022-10-26T08:22:40.659Z,15.81
2022-10-26T08:25:09.844Z,15.60
2022-10-26T08:27:38.278Z,15.85
2022-10-26T08:30:07.431Z,16.03
2022-10-26T08:32:36.283Z,16.05
2022-10-26T08:35:04.783Z,16.07
2022-10-26T08:37:32.674Z,16.26
2022-10-26T08:40:02.940Z,16.31
2022-10-26T08:42:40.911Z,16.44
2022-10-26T08:45:31.736Z,16.48
2022-10-26T08:48:05.015Z,16.88
2022-10-26T08:50:42.942Z,17.02
2022-10-26T08:53:20.730Z,17.15
2022-10-26T08:56:02.228Z,17.50
2022-10-26T08:58:45.688Z,17.48
2022-10-26T09:01:13.966Z,17.58
2022-10-26T09:03:41.969Z,17.88
2022-10-26T09:06:40.426Z,18.11
2022-10-26T09:09:43.819Z,18.24
2022-10-26T09:12:11.713Z,18.10
2022-10-26T09:15:11.176Z,17.89
2022-10-26T09:17:53.122Z,17.90
2022-10-26T09:20:42.411Z,17.58
2022-10-26T09:23:42.278Z,17.82
2022-10-26T09:26:19.219Z,18.20
2022-10-26T09:28:48.603Z,18.54
2022-10-26T09:31:18.080Z,18.20
2022-10-26T09:33:47.070Z,18.68
2022-10-26T09:36:22.454Z,19.15
2022-10-26T09:39:24.794Z,19.13
2022-10-26T09:42:01.240Z,18.40
2022-10-26T09:44:43.686Z,17.85
2022-10-26T09:47:52.883Z,18.39
2022-10-26T09:50:28.609Z,18.85
2022-10-26T09:52:56.560Z,18.90
2022-10-26T09:55:24.318Z,18.91
2022-10-26T09:57:56.357Z,19.45
2022-10-26T10:00:26.053Z,19.49
2022-10-26T10:02:55.900Z,19.54
2022-10-26T10:05:50.221Z,19.97
2022-10-26T10:08:24.517Z,19.91
2022-10-26T10:10:58.165Z,20.08
2022-10-26T10:13:29.356Z,19.87
2022-10-26T10:16:23.165Z,19.60
2022-10-26T10:18:56.902Z,19.73
2022-10-26T10:21:44.706Z,20.45
2022-10-26T10:24:24.635Z,20.57
2022-10-26T10:26:58.410Z,20.67
2022-10-26T10:29:28.250Z,20.52
2022-10-26T10:32:01.207Z,20.79
2022-10-26T10:34:33.212Z,20.67
2022-10-26T10:37:02.654Z,20.80
2022-10-26T10:39:41.879Z,21.19
2022-10-26T10:42:21.943Z,20.99
2022-10-26T10:44:55.331Z,21.56
2022-10-26T10:47:27.224Z,21.49
2022-10-26T10:50:07.391Z,21.51
2022-10-26T10:52:36.365Z,21.86
2022-10-26T10:55:15.693Z,21.71
2022-10-26T10:57:56.548Z,22.33
2022-10-26T11:00:25.592Z,22.62
2022-10-26T11:03:08.754Z,22.59
2022-10-26T11:06:00.476Z,22.58
2022-10-26T11:08:31.140Z,22.71
2022-10-26T11:11:02.166Z,22.65
2022-10-26T11:13:37.491Z,22.27
2022-10-26T11:16:15.455Z,22.31
2022-10-26T11:18:49.797Z,22.77
2022-10-26T11:21:30.210Z,22.55
2022-10-26T11:24:18.207Z,22.96
2022-10-26T11:26:53.959Z,22.76
2022-10-26T11:29:21.962Z,22.92
2022-10-26T11:32:05.780Z,22.81
2022-10-26T11:34:41.984Z,22.90
2022-10-26T11:37:25.789Z,23.08
2022-10-26T11:40:16.106Z,22.87
2022-10-26T11:42:50.152Z,22.71
2022-10-26T11:45:26.671Z,22.48
2022-10-26T11:48:06.863Z,22.71
2022-10-26T11:50:39.566Z,22.60
2022-10-26T11:53:21.347Z,23.10
2022-10-26T11:55:54.551Z,23.35
2022-10-26T11:58:33.377Z,23.05
2022-10-26T12:01:11.282Z,23.71
2022-10-26T12:03:47.856Z,23.49
2022-10-26T12:06:20.855Z,23.60
2022-10-26T12:09:07.294Z,23.25
2022-10-26T12:11:38.886Z,23.71
2022-10-26T12:14:27.405Z,24.06
2022-10-26T12:17:20.104Z,23.80
2022-10-26T12:19:50.834Z,23.41
2022-10-26T12:22:20.845Z,23.49
2022-10-26T12:25:08.217Z,23.97
2022-10-26T12:27:39.922Z,24.03
2022-10-26T12:30:32.536Z,24.22
2022-10-26T12:33:22.974Z,23.82
2022-10-26T12:35:52.544Z,23.66
2022-10-26T12:38:24.492Z,23.84
2022-10-26T12:41:18.547Z,24.08
2022-10-26T12:43:48.550Z,23.91
2022-10-26T12:46:17.368Z,23.53
2022-10-26T12:48:49.855Z,23.62
2022-10-26T12:51:39.919Z,23.78
2022-10-26T12:54:35.738Z,24.04
2022-10-26T12:57:48.566Z,23.76
2022-10-26T13:00:22.306Z,23.55
2022-10-26T13:03:27.736Z,23.62
2022-10-26T13:06:14.665Z,23.60
2022-10-26T13:08:48.280Z,23.80
2022-10-26T13:11:32.830Z,23.91
2022-10-26T13:14:04.589Z,23.96
2022-10-26T13:16:34.606Z,24.02
2022-10-26T13:38:53.401Z,23.90
2022-10-26T13:41:48.457Z,24.15
2022-10-26T13:44:44.276Z,24.64
2022-10-26T13:47:23.240Z,24.77
2022-10-26T13:49:54.185Z,25.17
2022-10-26T13:52:46.195Z,25.18
2022-10-26T13:55:24.721Z,24.93
2022-10-26T13:58:06.403Z,24.31
2022-10-26T14:00:33.779Z,24.16
2022-10-26T14:03:12.301Z,24.30
2022-10-26T14:05:45.028Z,24.41
2022-10-26T14:08:17.626Z,24.34
2022-10-26T14:11:02.517Z,24.20
2022-10-26T14:13:31.253Z,24.44
2022-10-26T14:15:58.417Z,24.50
2022-10-26T14:18:27.849Z,24.39
2022-10-26T14:21:03.702Z,24.43
2022-10-26T14:23:44.940Z,24.31
2022-10-26T14:26:24.346Z,24.47
2022-10-26T14:28:55.205Z,24.43
2022-10-26T14:31:31.190Z,24.20
2022-10-26T14:34:01.010Z,24.18
2022-10-26T14:36:36.198Z,24.21
2022-10-26T14:39:08.743Z,24.29
2022-10-26T14:41:36.041Z,24.21
2022-10-26T14:44:04.145Z,24.22
2022-10-26T14:46:34.887Z,24.24
2022-10-26T14:49:02.988Z,24.21
2022-10-26T14:51:34.937Z,24.16
2022-10-26T14:54:03.777Z,24.07
2022-10-26T14:56:36.256Z,23.90
2022-10-26T14:59:26.590Z,23.73
2022-10-26T15:02:19.591Z,23.46
2022-10-26T15:05:16.947Z,23.17
2022-10-26T15:07:44.969Z,22.89
2022-10-26T15:10:46.006Z,22.65
2022-10-26T15:13:33.105Z,22.35
2022-10-26T15:16:17.413Z,22.22
2022-10-26T15:18:47.819Z,22.09
2022-10-26T15:21:33.292Z,21.96
2022-10-26T15:24:01.781Z,21.57
2022-10-26T15:26:29.074Z,21.19
2022-10-26T15:28:55.759Z,20.78
2022-10-26T15:31:31.031Z,20.52
2022-10-26T15:34:00.718Z,20.27
2022-10-26T15:36:33.991Z,20.10
2022-10-26T15:39:01.976Z,19.80
2022-10-26T15:41:41.458Z,19.71
2022-10-26T15:44:16.824Z,19.40
2022-10-26T15:46:46.060Z,19.08
2022-10-26T15:49:21.189Z,18.91
2022-10-26T15:51:50.821Z,18.83
2022-10-26T15:54:28.542Z,18.61
2022-10-26T15:56:57.181Z,18.27
2022-10-26T15:59:26.070Z,17.75
2022-10-26T16:01:54.463Z,17.31
2022-10-26T16:04:21.901Z,17.07
2022-10-26T16:06:49.403Z,16.96
2022-10-26T16:09:20.403Z,16.99
2022-10-26T16:11:47.830Z,17.11
2022-10-26T16:14:15.201Z,17.09
2022-10-26T16:16:44.915Z,17.17
2022-10-26T16:22:05.244Z,17.22
2022-10-26T16:24:32.775Z,17.11
2022-10-26T16:27:03.408Z,16.93
2022-10-26T16:29:32.759Z,16.75
2022-10-26T16:32:01.862Z,16.61
2022-10-26T16:34:29.394Z,16.49
2022-10-26T16:36:57.114Z,16.30
2022-10-26T16:39:23.907Z,16.26
2022-10-26T16:41:51.820Z,16.06
2022-10-26T16:44:18.959Z,15.99
2022-10-26T16:46:49.442Z,15.81
2022-10-26T16:49:18.432Z,15.65
2022-10-26T16:51:46.697Z,15.48
2022-10-26T16:54:14.537Z,15.35
2022-10-26T16:56:47.300Z,15.22
2022-10-26T16:59:18.733Z,15.18
2022-10-26T17:01:48.854Z,15.21
2022-10-26T17:04:15.809Z,15.22
2022-10-26T17:06:42.488Z,15.29
2022-10-26T17:09:08.970Z,15.26
2022-10-26T17:11:35.732Z,15.21
2022-10-26T17:14:02.778Z,15.12
2022-10-26T17:16:29.441Z,15.00
2022-10-26T17:18:56.295Z,14.91
2022-10-26T17:21:35.920Z,14.80
2022-10-26T17:24:07.156Z,14.75
2022-10-26T17:26:35.712Z,14.74
2022-10-26T17:29:03.707Z,14.66
2022-10-26T17:31:31.984Z,14.51
2022-10-26T17:34:01.392Z,14.51
2022-10-26T17:36:29.272Z,14.68
2022-10-26T17:38:58.258Z,14.55
2022-10-26T17:41:26.869Z,14.38
2022-10-26T17:43:54.557Z,14.44
2022-10-26T17:46:24.421Z,14.40
2022-10-26T17:48:58.183Z,14.45
2022-10-26T17:51:26.736Z,14.50
2022-10-26T17:53:53.904Z,14.43
2022-10-26T17:56:31.214Z,14.36
2022-10-26T17:59:09.921Z,14.28
2022-10-26T18:01:37.406Z,14.29
2022-10-26T18:04:04.586Z,14.24
2022-10-26T18:06:31.371Z,13.97
2022-10-26T18:08:58.964Z,13.88
2022-10-26T18:11:27.850Z,13.88
2022-10-26T18:13:55.909Z,13.91
2022-10-26T18:16:24.140Z,13.90
2022-10-26T18:19:00.509Z,13.83
2022-10-26T18:21:32.460Z,13.90
2022-10-26T18:24:00.628Z,13.95
2022-10-26T18:26:30.117Z,13.92
2022-10-26T18:29:01.040Z,13.86
2022-10-26T18:31:30.442Z,13.73
2022-10-26T18:34:00.139Z,13.61
2022-10-26T18:36:28.326Z,13.56
2022-10-26T18:38:59.476Z,13.66
2022-10-26T18:41:28.746Z,13.67
2022-10-26T18:44:01.976Z,13.74
2022-10-26T18:46:33.095Z,13.80
2022-10-26T18:49:00.814Z,13.88
2022-10-26T18:51:32.742Z,13.87
2022-10-26T18:54:01.862Z,13.90
2022-10-26T18:56:29.473Z,13.91
2022-10-26T18:58:59.067Z,13.94
2022-10-26T19:01:29.304Z,13.95
2022-10-26T19:04:05.577Z,13.93
2022-10-26T19:06:37.939Z,13.87
2022-10-26T19:09:06.254Z,13.62
2022-10-26T19:11:37.148Z,13.50
2022-10-26T19:14:04.746Z,13.34
2022-10-26T19:16:45.067Z,13.27
2022-10-26T19:19:14.692Z,13.34
2022-10-26T19:21:41.757Z,13.52
2022-10-26T19:24:16.037Z,13.29
2022-10-26T19:26:43.959Z,13.23
2022-10-26T19:29:17.272Z,13.25
2022-10-26T19:31:46.919Z,13.25
2022-10-26T19:34:17.332Z,13.37
2022-10-26T19:36:46.272Z,13.35
2022-10-26T19:39:15.835Z,13.50
2022-10-26T19:41:44.849Z,13.31
2022-10-26T19:44:12.506Z,13.46
2022-10-26T19:46:39.546Z,13.80
2022-10-26T19:49:07.039Z,13.82
2022-10-26T19:51:35.197Z,13.68
2022-10-26T19:54:04.007Z,13.63
2022-10-26T19:56:36.489Z,13.52
2022-10-26T19:59:04.579Z,13.52
2022-10-26T20:01:31.178Z,13.20
2022-10-26T20:03:57.810Z,13.07
2022-10-26T20:06:24.501Z,13.43
2022-10-26T20:08:51.166Z,13.49
2022-10-26T20:11:19.137Z,13.56
2022-10-26T20:13:47.693Z,13.46
2022-10-26T20:16:16.773Z,13.17
2022-10-26T20:18:47.611Z,13.03
2022-10-26T20:21:17.002Z,12.95
2022-10-26T20:23:45.258Z,12.94
2022-10-26T20:26:18.382Z,12.91
2022-10-26T20:28:51.852Z,12.87
2022-10-26T20:31:20.203Z,12.72
2022-10-26T20:33:52.138Z,12.58
2022-10-26T20:36:20.116Z,12.49
2022-10-26T20:38:47.420Z,12.71
2022-10-26T20:41:14.379Z,12.93
2022-10-26T20:43:42.013Z,13.04
2022-10-26T20:46:26.677Z,12.94
2022-10-26T20:48:54.265Z,12.73
2022-10-26T20:52:02.745Z,12.61
2022-10-26T20:54:41.891Z,12.39
2022-10-26T20:57:14.099Z,12.39
2022-10-26T20:59:46.073Z,12.45
2022-10-26T21:02:12.828Z,12.51
2022-10-26T21:04:39.656Z,12.57
2022-10-26T21:07:06.496Z,12.76
2022-10-26T21:09:36.524Z,12.89
2022-10-26T21:12:03.784Z,12.84
2022-10-26T21:14:30.343Z,12.77
2022-10-26T21:16:56.735Z,12.68
2022-10-26T21:19:23.031Z,12.67
2022-10-26T21:21:50.032Z,12.71
2022-10-26T21:24:16.340Z,12.85
2022-10-26T21:26:42.721Z,12.88
2022-10-26T21:29:09.932Z,12.91
2022-10-26T21:31:36.426Z,12.87
2022-10-26T21:34:04.022Z,12.78
2022-10-26T21:36:30.719Z,12.71
2022-10-26T21:38:57.246Z,12.62
2022-10-26T21:43:59.203Z,12.50
2022-10-26T21:46:37.358Z,12.38
2022-10-26T21:49:04.245Z,12.37
2022-10-26T21:51:30.755Z,12.35
2022-10-26T21:53:57.827Z,12.24
2022-10-26T21:56:24.527Z,12.29
2022-10-26T21:58:51.073Z,12.21
2022-10-26T22:01:20.226Z,11.88
2022-10-26T22:03:48.227Z,11.88
2022-10-26T22:08:49.378Z,11.91
2022-10-26T22:11:22.373Z,11.97
2022-10-26T22:13:52.823Z,12.06
2022-10-26T22:16:25.148Z,12.25
2022-10-26T22:18:53.441Z,12.35
2022-10-26T22:21:21.695Z,12.52
2022-10-26T22:23:50.957Z,12.55
2022-10-26T22:26:20.777Z,12.63
2022-10-26T22:28:49.823Z,12.82
2022-10-26T22:31:21.758Z,12.94
2022-10-26T22:34:02.070Z,12.98
2022-10-26T22:36:32.076Z,13.04
2022-10-26T22:39:01.370Z,12.99
2022-10-26T22:41:27.794Z,13.02
2022-10-26T22:43:54.262Z,13.09
2022-10-26T22:46:25.921Z,13.21
2022-10-26T22:48:54.180Z,13.37
2022-10-26T22:51:23.029Z,13.50
2022-10-26T22:53:54.175Z,13.56
2022-10-26T22:56:22.623Z,13.61
2022-10-26T22:58:51.400Z,13.67
2022-10-26T23:01:22.791Z,13.74
2022-10-26T23:03:49.627Z,13.74
2022-10-26T23:06:18.049Z,13.72
2022-10-26T23:08:45.402Z,13.77
2022-10-26T23:11:15.302Z,13.79
2022-10-26T23:13:42.428Z,13.78
2022-10-26T23:16:13.363Z,13.82
2022-10-26T23:18:40.138Z,13.80
2022-10-26T23:21:08.553Z,13.74
2022-10-26T23:23:35.600Z,13.70
2022-10-26T23:26:08.386Z,13.66
2022-10-26T23:28:35.808Z,13.52
2022-10-26T23:31:02.140Z,13.53
2022-10-26T23:33:28.859Z,13.49
2022-10-26T23:35:55.331Z,13.47
2022-10-26T23:38:21.710Z,13.34
2022-10-26T23:40:53.266Z,13.25
2022-10-26T23:43:20.647Z,13.21
2022-10-26T23:45:47.246Z,13.13
2022-10-26T23:48:13.993Z,13.10
2022-10-26T23:50:44.967Z,13.03
2022-10-26T23:53:12.841Z,13.06
2022-10-26T23:55:39.554Z,13.07
2022-10-26T23:58:06.344Z,13.06
